DW9246 Almoster ES current weather conditions

sailwx.info

Wind from 171 at 2 knots gusting 4

Air temperature 6.7° C
Dewpoint 2.9° C

Last reported at 2020-Jan-27 01:00 UTC.
Time now 2020-Jan-27 02:12 UTC

Location: N 41°11' E 001°07'.
View on Google Maps.

See reports from other nearby stations

  
Tides and Currents Weather Stations Pressure Air Temp Water Temp Dewpoint Dewpoint Depression Visibility Wind Speed Wind Dir Waves Ship Positions
date/time (UTC)wind fromknots sea level pressurealtimeterstation pressurevisibilityair tempwater tempwave heightnotes
2020-Jan-27 01:00 171 2 gusting 4 6.7
2020-Jan-27 00:50 183 2 gusting 4 6.7
2020-Jan-27 00:40 148 2 gusting 5 6.7
2020-Jan-27 00:30 150 2 gusting 5 6.7
2020-Jan-27 00:20 193 1 gusting 3 7.2
2020-Jan-27 00:10 188 2 gusting 4 6.7
2020-Jan-27 00:00 187 3 gusting 5 6.7
2020-Jan-26 23:50 185 3 gusting 5 7.2
2020-Jan-26 23:40 191 3 gusting 4 7.2
2020-Jan-26 23:30 184 3 gusting 4 6.7
2020-Jan-26 23:20 177 2 gusting 4 6.7
2020-Jan-26 23:10 170 2 gusting 4 6.7
2020-Jan-26 23:00 166 2 gusting 6 6.7
2020-Jan-26 22:50 168 3 gusting 4 7.2
2020-Jan-26 22:40 166 3 gusting 6 7.2
2020-Jan-26 22:30 167 3 gusting 6 7.2
2020-Jan-26 22:20 168 3 gusting 6 7.2
2020-Jan-26 22:10 166 3 gusting 6 7.2
2020-Jan-26 22:00 162 3 gusting 6 7.8
2020-Jan-26 21:50 167 3 gusting 7 7.8
2020-Jan-26 21:40 167 4 gusting 7 7.8
2020-Jan-26 21:30 168 3 gusting 6 7.8
2020-Jan-26 21:20 169 3 gusting 6 7.8
2020-Jan-26 21:10 160 2 gusting 4 8.3
2020-Jan-26 21:00 164 2 gusting 4 8.3
2020-Jan-26 20:50 176 2 gusting 6 8.3
2020-Jan-26 20:40 175 2 gusting 6 7.8
2020-Jan-26 20:30 172 2 gusting 4 8.3
2020-Jan-26 20:20 177 4 gusting 7 8.3
2020-Jan-26 20:10 169 2 gusting 5 8.3
2020-Jan-26 20:00 176 3 gusting 5 8.3
2020-Jan-26 19:50 183 3 gusting 5 8.3
2020-Jan-26 19:40 173 3 gusting 6 8.3
2020-Jan-26 19:30 174 2 gusting 6 8.3
2020-Jan-26 19:20 173 2 gusting 4 8.3
2020-Jan-26 19:10 168 3 gusting 5 8.9
2020-Jan-26 19:00 175 3 gusting 4 8.9
2020-Jan-26 18:50 179 2 gusting 6 8.9
2020-Jan-26 18:40 176 2 gusting 4 8.9
2020-Jan-26 18:30 179 2 gusting 4 8.9
2020-Jan-26 18:20 182 2 gusting 4 9.4
2020-Jan-26 18:10 170 3 gusting 4 10.0
2020-Jan-26 18:00 174 2 gusting 3 10.0
2020-Jan-26 17:50 182 1 gusting 3 10.6
2020-Jan-26 17:40 155 0 gusting 1 11.7
2020-Jan-26 17:30 156 0 gusting 2 11.1
2020-Jan-26 17:20 166 1 gusting 2 11.1
2020-Jan-26 17:10 157 0 gusting 2 12.2
2020-Jan-26 17:00 160 0 gusting 1 12.2
2020-Jan-26 16:50 165 2 gusting 5 12.2
2020-Jan-26 16:40 170 3 gusting 7 12.8
2020-Jan-26 16:30 165 5 gusting 9 12.2
2020-Jan-26 16:20 164 6 gusting 13 12.8
2020-Jan-26 16:10 166 3 gusting 9 13.3
2020-Jan-26 16:00 152 2 gusting 9 13.3
2020-Jan-26 15:50 163 2 gusting 8 13.3
2020-Jan-26 15:40 170 4 gusting 7 13.3
2020-Jan-26 15:30 119 4 gusting 8 13.3
2020-Jan-26 15:20 169 3 gusting 7 13.3
2020-Jan-26 15:10 165 5 gusting 10 13.3
2020-Jan-26 15:00 170 6 gusting 13 13.3
2020-Jan-26 14:50 155 5 gusting 11 13.3
2020-Jan-26 14:40 166 9 gusting 19 12.8
2020-Jan-26 14:30 181 8 gusting 14 12.8
2020-Jan-26 14:20 167 7 gusting 13 13.3
2020-Jan-26 14:10 182 5 gusting 11 13.3
2020-Jan-26 14:00 168 10 gusting 18 12.2
2020-Jan-26 13:50 161 8 gusting 13 12.2
2020-Jan-26 13:40 158 7 gusting 15 12.8
2020-Jan-26 13:30 152 7 gusting 13 12.2
2020-Jan-26 13:20 164 6 gusting 13 12.2
2020-Jan-26 13:10 165 7 gusting 17 12.2
2020-Jan-26 13:00 162 10 gusting 17 12.2
2020-Jan-26 12:50 157 10 gusting 17 12.2
2020-Jan-26 12:40 165 9 gusting 15 12.8
2020-Jan-26 12:30 151 9 gusting 16 13.3
2020-Jan-26 12:20 151 9 gusting 14 12.8
2020-Jan-26 12:10 159 9 gusting 15 12.2
2020-Jan-26 12:00 147 5 gusting 11 12.8
2020-Jan-26 11:50 351 1 gusting 3 12.8
2020-Jan-26 11:40 347 4 gusting 8 12.8
2020-Jan-26 11:30 349 3 gusting 7 13.3
2020-Jan-26 11:20 315 2 gusting 5 13.3
2020-Jan-26 11:10 318 3 gusting 6 12.8
2020-Jan-26 11:00 319 3 gusting 6 12.8
2020-Jan-26 10:50 318 3 gusting 6 12.8
2020-Jan-26 10:40 316 2 gusting 6 12.8
2020-Jan-26 10:30 324 2 gusting 5 12.2
2020-Jan-26 10:20 323 1 gusting 3 12.2
2020-Jan-26 10:10 319 2 gusting 5 11.7
2020-Jan-26 10:00 311 3 gusting 6 11.7
2020-Jan-26 09:50 319 1 gusting 5 11.7
2020-Jan-26 09:40 088 1 gusting 3 11.7
2020-Jan-26 09:30 095 1 gusting 3 11.7
2020-Jan-26 09:20 116 0 gusting 1 11.7
2020-Jan-26 09:10 122 11.1
2020-Jan-26 09:00 125 0 gusting 2 11.1
2020-Jan-26 08:50 116 0 gusting 2 11.1
2020-Jan-26 08:40 046 0 gusting 4 11.1
2020-Jan-26 08:30 070 1 gusting 3 11.1
2020-Jan-26 08:20 124 0 gusting 1 11.1
2020-Jan-26 08:10 126 10.6
2020-Jan-26 08:00 140 1 gusting 2 10.0
2020-Jan-26 07:50 159 0 gusting 2 9.4
2020-Jan-26 07:40 159 0 gusting 1 9.4
2020-Jan-26 07:30 170 0 gusting 1 9.4
2020-Jan-26 07:20 238 0 gusting 2 9.4
2020-Jan-26 07:10 203 1 gusting 4 9.4
2020-Jan-26 07:00 172 4 gusting 6 9.4
2020-Jan-26 06:50 174 4 gusting 6 9.4
2020-Jan-26 06:40 172 4 gusting 6 8.9
2020-Jan-26 06:30 174 4 gusting 6 8.9
2020-Jan-26 06:20 170 4 gusting 6 8.9
2020-Jan-26 06:10 168 2 gusting 4 8.9
2020-Jan-26 06:00 169 3 gusting 4 8.9
2020-Jan-26 05:40 172 3 gusting 4 9.4
2020-Jan-26 05:30 171 3 gusting 4 9.4
2020-Jan-26 05:20 174 2 gusting 4 9.4
2020-Jan-26 05:10 170 2 gusting 4 9.4
2020-Jan-26 05:00 171 2 gusting 3 8.9
2020-Jan-26 04:40 179 2 gusting 3 8.9
2020-Jan-26 04:30 183 2 gusting 4 8.9
2020-Jan-26 04:20 171 2 gusting 4 8.3
2020-Jan-26 04:10 189 3 gusting 4 8.3
2020-Jan-26 04:00 173 1 gusting 3 8.3
2020-Jan-26 03:50 169 2 gusting 3 8.9
2020-Jan-26 03:40 185 3 gusting 5 8.9
2020-Jan-26 03:30 170 2 gusting 3 9.4
2020-Jan-26 03:20 176 3 gusting 4 9.4
2020-Jan-26 03:10 177 3 gusting 4 9.4
2020-Jan-26 03:00 177 3 gusting 4 9.4
2020-Jan-26 02:50 182 2 gusting 3 9.4
2020-Jan-26 02:40 162 1 gusting 2 9.4
2020-Jan-26 02:30 170 2 gusting 3 9.4
2020-Jan-26 02:20 160 1 gusting 3 9.4
2020-Jan-26 02:10 172 2 gusting 3 8.9
2020-Jan-26 02:00 166 2 gusting 4 8.3
2020-Jan-26 01:50 177 2 gusting 3 8.3
2020-Jan-26 01:40 173 3 gusting 4 8.3
2020-Jan-26 01:30 174 2 gusting 3 8.3
2020-Jan-26 01:20 181 2 gusting 4 8.3
2020-Jan-26 01:10 175 3 gusting 4 8.3
2020-Jan-26 01:00 177 3 gusting 4 8.3
2020-Jan-26 00:50 177 3 gusting 4 8.9
2020-Jan-26 00:40 170 2 gusting 4 8.9
2020-Jan-26 00:30 176 2 gusting 4 8.9
2020-Jan-26 00:20 176 2 gusting 3 8.9
2020-Jan-26 00:10 193 3 gusting 4 8.9
2020-Jan-26 00:00 187 3 gusting 4 8.9
2020-Jan-25 23:50 184 3 gusting 4 8.9
2020-Jan-25 23:40 196 2 gusting 3 9.4
2020-Jan-25 23:30 198 2 gusting 3 10.0
2020-Jan-25 23:20 215 2 gusting 4 10.6
2020-Jan-25 23:10 219 2 gusting 4 10.6
2020-Jan-25 23:00 231 2 gusting 5 10.6
2020-Jan-25 22:50 221 2 gusting 4 10.0
2020-Jan-25 22:40 214 2 gusting 4 10.0
2020-Jan-25 22:30 202 2 gusting 3 10.0
2020-Jan-25 22:20 198 2 gusting 3 10.0
2020-Jan-25 22:10 205 2 gusting 3 10.0
2020-Jan-25 22:00 216 1 gusting 2 10.6
2020-Jan-25 21:50 228 2 gusting 5 10.6
2020-Jan-25 21:40 228 2 gusting 3 10.0
2020-Jan-25 21:30 190 2 gusting 3 9.4
2020-Jan-25 21:20 198 2 gusting 3 9.4
2020-Jan-25 21:10 215 2 gusting 4 10.0
2020-Jan-25 21:00 217 2 gusting 3 9.4
2020-Jan-25 20:50 206 2 gusting 3 9.4
2020-Jan-25 20:40 202 2 gusting 3 10.0
2020-Jan-25 20:30 204 2 gusting 3 10.0
2020-Jan-25 20:20 210 2 gusting 3 10.0
2020-Jan-25 20:10 206 1 gusting 3 10.6
2020-Jan-25 20:00 232 1 gusting 4 10.6
2020-Jan-25 19:50 225 1 gusting 3 10.6
2020-Jan-25 19:40 227 1 gusting 3 10.6
2020-Jan-25 19:30 210 1 gusting 2 10.6
2020-Jan-25 19:20 224 1 gusting 2 10.6
2020-Jan-25 19:10 236 1 gusting 3 10.6
2020-Jan-25 19:00 227 1 gusting 2 10.6
2020-Jan-25 18:50 215 1 gusting 2 10.6
2020-Jan-25 18:40 195 1 gusting 2 10.6
2020-Jan-25 18:30 217 1 gusting 2 10.6
2020-Jan-25 18:20 217 1 gusting 2 10.6
2020-Jan-25 18:10 217 1 gusting 2 10.6
2020-Jan-25 18:00 216 0 gusting 2 10.6
2020-Jan-25 17:50 217 1 gusting 2 10.6
2020-Jan-25 17:40 216 1 gusting 2 10.6
2020-Jan-25 17:30 217 1 gusting 2 10.6
2020-Jan-25 17:20 255 0 gusting 1 11.1
2020-Jan-25 17:10 329 0 gusting 1 11.7
2020-Jan-25 17:00 344 0 gusting 1 12.2
2020-Jan-25 16:50 343 12.2
2020-Jan-25 16:40 343 12.2
2020-Jan-25 16:30 11.7
2020-Jan-25 16:20 343 11.7
2020-Jan-25 16:10 344 0 gusting 1 11.7
2020-Jan-25 16:00 335 0 gusting 1 11.7
2020-Jan-25 15:50 321 0 gusting 1 11.7
2020-Jan-25 15:40 327 1 gusting 3 11.7
2020-Jan-25 15:30 317 1 gusting 3 12.2
2020-Jan-25 15:20 326 2 gusting 5 12.2
2020-Jan-25 15:10 327 1 gusting 3 12.8
2020-Jan-25 15:00 330 1 gusting 3 12.2
2020-Jan-25 14:50 299 1 gusting 3 12.2
2020-Jan-25 14:40 294 2 gusting 4 12.2
2020-Jan-25 14:30 301 2 gusting 6 12.2
2020-Jan-25 14:20 302 1 gusting 4 12.2
2020-Jan-25 14:10 304 2 gusting 5 11.7
2020-Jan-25 14:00 312 2 gusting 6 11.7
2020-Jan-25 13:50 289 2 gusting 4 11.7
2020-Jan-25 13:40 288 3 gusting 6 11.7
2020-Jan-25 13:30 295 2 gusting 5 11.7
2020-Jan-25 13:20 285 2 gusting 5 11.7
2020-Jan-25 13:10 281 1 gusting 5 11.7
2020-Jan-25 13:00 277 2 gusting 4 11.7
2020-Jan-25 12:50 272 2 gusting 6 11.7
2020-Jan-25 12:40 268 3 gusting 6 11.7
2020-Jan-25 12:30 270 3 gusting 5 11.7
2020-Jan-25 12:20 273 3 gusting 5 11.1
2020-Jan-25 12:10 268 3 gusting 6 11.1
2020-Jan-25 12:00 259 2 gusting 6 11.1
2020-Jan-25 11:50 262 2 gusting 6 11.1
2020-Jan-25 11:40 245 1 gusting 5 11.1
2020-Jan-25 11:20 266 2 gusting 6 11.1
2020-Jan-25 11:10 272 2 gusting 6 11.1
2020-Jan-25 11:00 250 2 gusting 4 11.1
2020-Jan-25 10:50 234 2 gusting 6 10.6
2020-Jan-25 10:40 239 2 gusting 6 10.6
2020-Jan-25 10:30 266 3 gusting 7 10.0
2020-Jan-25 10:20 290 4 gusting 7 10.0
2020-Jan-25 10:10 289 3 gusting 6 10.0
2020-Jan-25 10:00 293 3 gusting 6 10.6
2020-Jan-25 09:50 281 3 gusting 6 10.6
2020-Jan-25 09:40 261 3 gusting 6 10.6
2020-Jan-25 09:30 262 2 gusting 6 10.0
2020-Jan-25 09:20 280 3 gusting 6 10.0
2020-Jan-25 09:10 297 2 gusting 6 10.0
2020-Jan-25 09:00 291 1 gusting 3 10.0
2020-Jan-25 08:50 271 1 gusting 3 10.0
2020-Jan-25 08:40 260 1 gusting 2 10.0
2020-Jan-25 08:30 263 0 gusting 1 10.0
2020-Jan-25 08:20 260 1 gusting 3 9.4
2020-Jan-25 08:10 244 1 gusting 2 9.4
2020-Jan-25 08:00 245 0 gusting 1 9.4
2020-Jan-25 07:50 236 0 gusting 2 9.4
2020-Jan-25 07:40 236 0 gusting 1 9.4
2020-Jan-25 07:30 220 1 gusting 3 9.4
2020-Jan-25 07:20 218 1 gusting 2 8.9
2020-Jan-25 07:10 199 0 gusting 2 8.9
2020-Jan-25 07:00 195 1 gusting 2 8.9
2020-Jan-25 06:50 218 1 gusting 2 8.9
2020-Jan-25 06:40 242 0 gusting 3 9.4
2020-Jan-25 06:30 241 9.4
2020-Jan-25 06:20 240 1 gusting 4 8.9
2020-Jan-25 06:10 229 2 gusting 3 8.9
2020-Jan-25 06:00 221 1 gusting 3 8.9
2020-Jan-25 05:50 259 1 gusting 4 8.9
2020-Jan-25 05:40 222 1 gusting 2 8.9
2020-Jan-25 05:30 182 1 gusting 2 8.9
2020-Jan-25 05:20 182 1 gusting 2 8.9
2020-Jan-25 05:10 183 2 gusting 4 8.9
2020-Jan-25 05:00 176 3 gusting 5 8.9
2020-Jan-25 04:50 179 3 gusting 6 8.3
2020-Jan-25 04:40 187 3 gusting 5 8.3
2020-Jan-25 04:30 186 3 gusting 5 8.3
2020-Jan-25 04:20 184 3 gusting 6 8.3
2020-Jan-25 04:10 176 3 gusting 5 8.3
2020-Jan-25 04:00 175 2 gusting 4 8.3
2020-Jan-25 03:50 182 2 gusting 3 8.3
2020-Jan-25 03:40 181 1 gusting 2 8.3
2020-Jan-25 03:30 181 1 gusting 2 8.3
2020-Jan-25 03:20 178 1 gusting 2 8.3
2020-Jan-25 03:10 176 1 gusting 2 8.3
2020-Jan-25 03:00 181 1 gusting 2 8.3
2020-Jan-25 02:50 181 1 gusting 2 8.3
2020-Jan-25 02:40 181 1 gusting 2 8.3
2020-Jan-25 02:30 178 2 gusting 3 8.3
2020-Jan-25 02:20 184 1 gusting 2 8.3
2020-Jan-25 02:10 182 1 gusting 2 8.3
2020-Jan-25 02:00 182 1 gusting 2 8.9